sensor_id;sensor_type;location;lat;lon;timestamp;temperature;humidity
64715;DHT22;51144;53.002;6.506;2022-09-09T00:02:14;14.40;99.90
64715;DHT22;51144;53.002;6.506;2022-09-09T00:10:17;14.40;99.90
64715;DHT22;51144;53.002;6.506;2022-09-09T00:18:22;14.30;99.90
64715;DHT22;51144;53.002;6.506;2022-09-09T00:23:32;14.20;99.90
64715;DHT22;51144;53.002;6.506;2022-09-09T00:29:12;14.20;99.90
64715;DHT22;51144;53.002;6.506;2022-09-09T00:31:40;14.20;99.90
64715;DHT22;51144;53.002;6.506;2022-09-09T00:36:40;14.20;99.90
64715;DHT22;51144;53.002;6.506;2022-09-09T00:39:13;14.20;99.90
64715;DHT22;51144;53.002;6.506;2022-09-09T00:42:18;14.10;99.90
64715;DHT22;51144;53.002;6.506;2022-09-09T00:44:59;14.10;99.90
64715;DHT22;51144;53.002;6.506;2022-09-09T00:50:32;14.10;99.90
64715;DHT22;51144;53.002;6.506;2022-09-09T00:53:23;14.00;99.90
64715;DHT22;51144;53.002;6.506;2022-09-09T00:56:13;14.00;99.90
64715;DHT22;51144;53.002;6.506;2022-09-09T00:58:43;14.00;99.90
64715;DHT22;51144;53.002;6.506;2022-09-09T01:01:12;14.00;99.90
64715;DHT22;51144;53.002;6.506;2022-09-09T01:06:31;14.00;99.90
64715;DHT22;51144;53.002;6.506;2022-09-09T01:17:24;13.90;99.90
64715;DHT22;51144;53.002;6.506;2022-09-09T01:20:12;13.90;99.90
64715;DHT22;51144;53.002;6.506;2022-09-09T01:22:50;13.90;99.90
64715;DHT22;51144;53.002;6.506;2022-09-09T01:28:11;13.90;99.90
64715;DHT22;51144;53.002;6.506;2022-09-09T01:30:40;13.90;99.90
64715;DHT22;51144;53.002;6.506;2022-09-09T01:33:15;13.90;99.90
64715;DHT22;51144;53.002;6.506;2022-09-09T01:36:37;13.90;99.90
64715;DHT22;51144;53.002;6.506;2022-09-09T01:38:41;13.90;99.90
64715;DHT22;51144;53.002;6.506;2022-09-09T01:41:07;13.90;99.90
64715;DHT22;51144;53.002;6.506;2022-09-09T01:43:32;13.90;99.90
64715;DHT22;51144;53.002;6.506;2022-09-09T01:46:00;13.90;99.90
64715;DHT22;51144;53.002;6.506;2022-09-09T01:48:26;13.90;99.90
64715;DHT22;51144;53.002;6.506;2022-09-09T01:50:52;13.90;99.90
64715;DHT22;51144;53.002;6.506;2022-09-09T01:53:19;13.90;99.90
64715;DHT22;51144;53.002;6.506;2022-09-09T01:56:07;13.90;99.90
64715;DHT22;51144;53.002;6.506;2022-09-09T01:58:57;13.90;99.90
64715;DHT22;51144;53.002;6.506;2022-09-09T02:01:39;13.90;99.90
64715;DHT22;51144;53.002;6.506;2022-09-09T02:04:31;13.90;99.90
64715;DHT22;51144;53.002;6.506;2022-09-09T02:07:00;13.90;99.90
64715;DHT22;51144;53.002;6.506;2022-09-09T02:09:26;13.90;99.90
64715;DHT22;51144;53.002;6.506;2022-09-09T02:12:08;14.00;99.90
64715;DHT22;51144;53.002;6.506;2022-09-09T02:14:42;14.00;99.90
64715;DHT22;51144;53.002;6.506;2022-09-09T02:17:14;14.00;99.90
64715;DHT22;51144;53.002;6.506;2022-09-09T02:19:50;14.00;99.90
64715;DHT22;51144;53.002;6.506;2022-09-09T02:22:19;14.00;99.90
64715;DHT22;51144;53.002;6.506;2022-09-09T02:24:47;14.10;99.90
64715;DHT22;51144;53.002;6.506;2022-09-09T02:27:16;14.00;99.90
64715;DHT22;51144;53.002;6.506;2022-09-09T02:29:44;14.10;99.90
64715;DHT22;51144;53.002;6.506;2022-09-09T02:32:15;14.10;99.90
64715;DHT22;51144;53.002;6.506;2022-09-09T02:34:44;14.10;99.90
64715;DHT22;51144;53.002;6.506;2022-09-09T02:37:12;14.20;99.90
64715;DHT22;51144;53.002;6.506;2022-09-09T02:39:38;14.20;99.90
64715;DHT22;51144;53.002;6.506;2022-09-09T02:42:05;14.20;99.90
64715;DHT22;51144;53.002;6.506;2022-09-09T02:44:30;14.20;99.90
64715;DHT22;51144;53.002;6.506;2022-09-09T02:47:24;14.20;99.90
64715;DHT22;51144;53.002;6.506;2022-09-09T02:58:03;14.30;99.90
64715;DHT22;51144;53.002;6.506;2022-09-09T03:00:31;14.30;99.90
64715;DHT22;51144;53.002;6.506;2022-09-09T03:02:58;14.30;99.90
64715;DHT22;51144;53.002;6.506;2022-09-09T03:05:23;14.40;99.90
64715;DHT22;51144;53.002;6.506;2022-09-09T03:07:49;14.40;99.90
64715;DHT22;51144;53.002;6.506;2022-09-09T03:10:16;14.40;99.90
64715;DHT22;51144;53.002;6.506;2022-09-09T03:12:42;14.40;99.90
64715;DHT22;51144;53.002;6.506;2022-09-09T03:15:08;14.40;99.90
64715;DHT22;51144;53.002;6.506;2022-09-09T03:17:35;14.40;99.90
64715;DHT22;51144;53.002;6.506;2022-09-09T03:20:03;14.40;99.90
64715;DHT22;51144;53.002;6.506;2022-09-09T03:22:28;14.40;99.90
64715;DHT22;51144;53.002;6.506;2022-09-09T03:24:54;14.40;99.90
64715;DHT22;51144;53.002;6.506;2022-09-09T03:27:19;14.40;99.90
64715;DHT22;51144;53.002;6.506;2022-09-09T03:29:46;14.40;99.90
64715;DHT22;51144;53.002;6.506;2022-09-09T03:32:12;14.40;99.90
64715;DHT22;51144;53.002;6.506;2022-09-09T03:34:38;14.40;99.90
64715;DHT22;51144;53.002;6.506;2022-09-09T03:37:06;14.40;99.90
64715;DHT22;51144;53.002;6.506;2022-09-09T03:39:32;14.40;99.90
64715;DHT22;51144;53.002;6.506;2022-09-09T03:41:58;14.40;99.90
64715;DHT22;51144;53.002;6.506;2022-09-09T03:44:23;14.40;99.90
64715;DHT22;51144;53.002;6.506;2022-09-09T03:46:49;14.40;99.90
64715;DHT22;51144;53.002;6.506;2022-09-09T03:49:14;14.40;99.90
64715;DHT22;51144;53.002;6.506;2022-09-09T03:51:41;14.40;99.90
64715;DHT22;51144;53.002;6.506;2022-09-09T03:54:07;14.40;99.90
64715;DHT22;51144;53.002;6.506;2022-09-09T03:56:36;14.40;99.90
64715;DHT22;51144;53.002;6.506;2022-09-09T03:59:02;14.40;99.90
64715;DHT22;51144;53.002;6.506;2022-09-09T04:01:28;14.30;99.90
64715;DHT22;51144;53.002;6.506;2022-09-09T04:03:53;14.40;99.90
64715;DHT22;51144;53.002;6.506;2022-09-09T04:06:20;14.40;99.90
64715;DHT22;51144;53.002;6.506;2022-09-09T04:08:46;14.40;99.90
64715;DHT22;51144;53.002;6.506;2022-09-09T04:11:15;14.40;99.90
64715;DHT22;51144;53.002;6.506;2022-09-09T04:13:41;14.40;99.90
64715;DHT22;51144;53.002;6.506;2022-09-09T04:16:09;14.40;99.90
64715;DHT22;51144;53.002;6.506;2022-09-09T04:18:35;14.40;99.90
64715;DHT22;51144;53.002;6.506;2022-09-09T04:21:01;14.40;99.90
64715;DHT22;51144;53.002;6.506;2022-09-09T04:23:28;14.40;99.90
64715;DHT22;51144;53.002;6.506;2022-09-09T04:25:56;14.30;99.90
64715;DHT22;51144;53.002;6.506;2022-09-09T04:28:24;14.40;99.90
64715;DHT22;51144;53.002;6.506;2022-09-09T04:30:50;14.30;99.90
64715;DHT22;51144;53.002;6.506;2022-09-09T04:33:16;14.30;99.90
64715;DHT22;51144;53.002;6.506;2022-09-09T04:35:48;14.30;99.90
64715;DHT22;51144;53.002;6.506;2022-09-09T04:38:15;14.30;99.90
64715;DHT22;51144;53.002;6.506;2022-09-09T04:40:46;14.30;99.90
64715;DHT22;51144;53.002;6.506;2022-09-09T04:43:12;14.30;99.90
64715;DHT22;51144;53.002;6.506;2022-09-09T04:45:40;14.30;99.90
64715;DHT22;51144;53.002;6.506;2022-09-09T04:48:06;14.30;99.90
64715;DHT22;51144;53.002;6.506;2022-09-09T04:50:32;14.30;99.90
64715;DHT22;51144;53.002;6.506;2022-09-09T04:53:00;14.30;99.90
64715;DHT22;51144;53.002;6.506;2022-09-09T04:55:26;14.30;99.90
64715;DHT22;51144;53.002;6.506;2022-09-09T04:57:52;14.30;99.90
64715;DHT22;51144;53.002;6.506;2022-09-09T05:00:18;14.30;99.90
64715;DHT22;51144;53.002;6.506;2022-09-09T05:02:44;14.30;99.90
64715;DHT22;51144;53.002;6.506;2022-09-09T05:05:09;14.30;99.90
64715;DHT22;51144;53.002;6.506;2022-09-09T05:07:36;14.30;99.90
64715;DHT22;51144;53.002;6.506;2022-09-09T05:10:02;14.30;99.90
64715;DHT22;51144;53.002;6.506;2022-09-09T05:12:30;14.30;99.90
64715;DHT22;51144;53.002;6.506;2022-09-09T05:14:56;14.20;99.90
64715;DHT22;51144;53.002;6.506;2022-09-09T05:17:23;14.30;99.90
64715;DHT22;51144;53.002;6.506;2022-09-09T05:19:48;14.20;99.90
64715;DHT22;51144;53.002;6.506;2022-09-09T05:22:21;14.20;99.90
64715;DHT22;51144;53.002;6.506;2022-09-09T05:24:49;14.20;99.90
64715;DHT22;51144;53.002;6.506;2022-09-09T05:27:19;14.20;99.90
64715;DHT22;51144;53.002;6.506;2022-09-09T05:29:46;14.20;99.90
64715;DHT22;51144;53.002;6.506;2022-09-09T05:32:11;14.20;99.90
64715;DHT22;51144;53.002;6.506;2022-09-09T05:34:39;14.20;99.90
64715;DHT22;51144;53.002;6.506;2022-09-09T05:37:04;14.20;99.90
64715;DHT22;51144;53.002;6.506;2022-09-09T05:39:30;14.20;99.90
64715;DHT22;51144;53.002;6.506;2022-09-09T05:41:56;14.20;99.90
64715;DHT22;51144;53.002;6.506;2022-09-09T05:44:22;14.20;99.90
64715;DHT22;51144;53.002;6.506;2022-09-09T05:46:50;14.20;99.90
64715;DHT22;51144;53.002;6.506;2022-09-09T05:49:15;14.20;99.90
64715;DHT22;51144;53.002;6.506;2022-09-09T05:51:41;14.20;99.90
64715;DHT22;51144;53.002;6.506;2022-09-09T05:54:08;14.20;99.90
64715;DHT22;51144;53.002;6.506;2022-09-09T05:56:34;14.20;99.90
64715;DHT22;51144;53.002;6.506;2022-09-09T05:59:00;14.20;99.90
64715;DHT22;51144;53.002;6.506;2022-09-09T06:01:29;14.20;99.90
64715;DHT22;51144;53.002;6.506;2022-09-09T06:03:55;14.20;99.90
64715;DHT22;51144;53.002;6.506;2022-09-09T06:06:31;14.30;99.90
64715;DHT22;51144;53.002;6.506;2022-09-09T06:08:57;14.30;99.90
64715;DHT22;51144;53.002;6.506;2022-09-09T06:11:25;14.30;99.90
64715;DHT22;51144;53.002;6.506;2022-09-09T06:13:52;14.30;99.90
64715;DHT22;51144;53.002;6.506;2022-09-09T06:16:21;14.30;99.90
64715;DHT22;51144;53.002;6.506;2022-09-09T06:18:48;14.30;99.90
64715;DHT22;51144;53.002;6.506;2022-09-09T06:21:19;14.30;99.90
64715;DHT22;51144;53.002;6.506;2022-09-09T06:23:46;14.40;99.90
64715;DHT22;51144;53.002;6.506;2022-09-09T06:26:17;14.40;99.90
64715;DHT22;51144;53.002;6.506;2022-09-09T06:28:45;14.40;99.90
64715;DHT22;51144;53.002;6.506;2022-09-09T06:31:12;14.40;99.90
64715;DHT22;51144;53.002;6.506;2022-09-09T06:33:40;14.50;99.90
64715;DHT22;51144;53.002;6.506;2022-09-09T06:36:23;14.50;99.90
64715;DHT22;51144;53.002;6.506;2022-09-09T06:38:49;14.60;99.90
64715;DHT22;51144;53.002;6.506;2022-09-09T06:41:17;14.50;99.90
64715;DHT22;51144;53.002;6.506;2022-09-09T06:43:44;14.50;99.90
64715;DHT22;51144;53.002;6.506;2022-09-09T06:46:15;14.60;99.90
64715;DHT22;51144;53.002;6.506;2022-09-09T06:48:42;14.60;99.90
64715;DHT22;51144;53.002;6.506;2022-09-09T06:51:10;14.60;99.90
64715;DHT22;51144;53.002;6.506;2022-09-09T06:53:37;14.60;99.90
64715;DHT22;51144;53.002;6.506;2022-09-09T06:56:22;14.60;99.90
64715;DHT22;51144;53.002;6.506;2022-09-09T06:58:49;14.60;99.90
64715;DHT22;51144;53.002;6.506;2022-09-09T07:01:20;14.70;99.90
64715;DHT22;51144;53.002;6.506;2022-09-09T07:03:52;14.70;99.90
64715;DHT22;51144;53.002;6.506;2022-09-09T07:06:20;14.70;99.90
64715;DHT22;51144;53.002;6.506;2022-09-09T07:09:00;14.70;99.90
64715;DHT22;51144;53.002;6.506;2022-09-09T07:11:31;14.80;99.90
64715;DHT22;51144;53.002;6.506;2022-09-09T07:13:58;14.90;99.90
64715;DHT22;51144;53.002;6.506;2022-09-09T07:16:25;15.00;99.90
64715;DHT22;51144;53.002;6.506;2022-09-09T07:18:53;15.00;99.90
64715;DHT22;51144;53.002;6.506;2022-09-09T07:21:24;15.10;99.90
64715;DHT22;51144;53.002;6.506;2022-09-09T07:23:51;15.10;99.90
64715;DHT22;51144;53.002;6.506;2022-09-09T07:26:19;15.20;99.90
64715;DHT22;51144;53.002;6.506;2022-09-09T07:28:46;15.20;99.90
64715;DHT22;51144;53.002;6.506;2022-09-09T07:31:20;15.30;99.90
64715;DHT22;51144;53.002;6.506;2022-09-09T07:33:46;15.50;99.90
64715;DHT22;51144;53.002;6.506;2022-09-09T07:38:44;15.60;99.90
64715;DHT22;51144;53.002;6.506;2022-09-09T07:41:13;15.70;99.90
64715;DHT22;51144;53.002;6.506;2022-09-09T07:43:40;16.00;99.90
64715;DHT22;51144;53.002;6.506;2022-09-09T07:46:07;16.30;99.90
64715;DHT22;51144;53.002;6.506;2022-09-09T07:48:33;16.50;99.90
64715;DHT22;51144;53.002;6.506;2022-09-09T07:51:07;16.90;99.90
64715;DHT22;51144;53.002;6.506;2022-09-09T07:53:34;17.20;99.90
64715;DHT22;51144;53.002;6.506;2022-09-09T07:56:10;17.10;99.90
64715;DHT22;51144;53.002;6.506;2022-09-09T07:58:37;17.20;99.90
64715;DHT22;51144;53.002;6.506;2022-09-09T08:03:44;17.40;99.90
64715;DHT22;51144;53.002;6.506;2022-09-09T08:06:10;17.50;99.90
64715;DHT22;51144;53.002;6.506;2022-09-09T08:08:38;17.50;99.90
64715;DHT22;51144;53.002;6.506;2022-09-09T08:11:07;17.60;99.90
64715;DHT22;51144;53.002;6.506;2022-09-09T08:13:34;17.60;99.90
64715;DHT22;51144;53.002;6.506;2022-09-09T08:16:12;17.50;99.90
64715;DHT22;51144;53.002;6.506;2022-09-09T08:18:39;17.40;99.90
64715;DHT22;51144;53.002;6.506;2022-09-09T08:21:06;17.40;99.90
64715;DHT22;51144;53.002;6.506;2022-09-09T08:23:32;17.40;99.90
64715;DHT22;51144;53.002;6.506;2022-09-09T08:26:07;17.30;99.90
64715;DHT22;51144;53.002;6.506;2022-09-09T08:28:34;17.30;99.90
64715;DHT22;51144;53.002;6.506;2022-09-09T08:31:14;17.40;99.90
64715;DHT22;51144;53.002;6.506;2022-09-09T08:33:42;17.50;99.90
64715;DHT22;51144;53.002;6.506;2022-09-09T08:36:13;17.50;99.90
64715;DHT22;51144;53.002;6.506;2022-09-09T08:38:41;17.50;99.90
64715;DHT22;51144;53.002;6.506;2022-09-09T08:47:02;17.90;99.90
64715;DHT22;51144;53.002;6.506;2022-09-09T08:52:36;18.40;99.90
64715;DHT22;51144;53.002;6.506;2022-09-09T08:57:57;18.80;99.90
64715;DHT22;51144;53.002;6.506;2022-09-09T09:00:30;19.20;99.90
64715;DHT22;51144;53.002;6.506;2022-09-09T09:06:16;19.30;99.90
64715;DHT22;51144;53.002;6.506;2022-09-09T09:09:11;19.20;99.90
64715;DHT22;51144;53.002;6.506;2022-09-09T09:11:54;19.20;99.90
64715;DHT22;51144;53.002;6.506;2022-09-09T09:14:23;19.00;99.90
64715;DHT22;51144;53.002;6.506;2022-09-09T09:17:04;18.90;99.90
64715;DHT22;51144;53.002;6.506;2022-09-09T09:19:35;18.80;99.90
64715;DHT22;51144;53.002;6.506;2022-09-09T09:27:58;19.80;99.90
64715;DHT22;51144;53.002;6.506;2022-09-09T09:30:50;20.20;99.90
64715;DHT22;51144;53.002;6.506;2022-09-09T09:33:23;20.20;99.90
64715;DHT22;51144;53.002;6.506;2022-09-09T09:35:51;20.10;99.90
64715;DHT22;51144;53.002;6.506;2022-09-09T09:38:26;20.00;99.90
64715;DHT22;51144;53.002;6.506;2022-09-09T09:40:57;19.90;99.90
64715;DHT22;51144;53.002;6.506;2022-09-09T09:43:31;19.70;99.90
64715;DHT22;51144;53.002;6.506;2022-09-09T09:45:58;19.80;99.90
64715;DHT22;51144;53.002;6.506;2022-09-09T09:48:26;19.70;99.90
64715;DHT22;51144;53.002;6.506;2022-09-09T09:50:58;19.50;99.90
64715;DHT22;51144;53.002;6.506;2022-09-09T09:53:26;19.30;99.90
64715;DHT22;51144;53.002;6.506;2022-09-09T09:55:58;19.20;99.90
64715;DHT22;51144;53.002;6.506;2022-09-09T09:58:26;19.00;99.90
64715;DHT22;51144;53.002;6.506;2022-09-09T10:00:53;18.90;99.90
64715;DHT22;51144;53.002;6.506;2022-09-09T10:03:33;18.90;99.90
64715;DHT22;51144;53.002;6.506;2022-09-09T10:06:03;18.90;99.90
64715;DHT22;51144;53.002;6.506;2022-09-09T10:08:29;18.90;99.90
64715;DHT22;51144;53.002;6.506;2022-09-09T10:18:45;19.10;99.90
64715;DHT22;51144;53.002;6.506;2022-09-09T10:27:15;20.20;99.90
64715;DHT22;51144;53.002;6.506;2022-09-09T10:32:56;20.10;99.90
64715;DHT22;51144;53.002;6.506;2022-09-09T10:35:33;20.30;99.90
64715;DHT22;51144;53.002;6.506;2022-09-09T10:46:44;19.90;99.90
64715;DHT22;51144;53.002;6.506;2022-09-09T10:54:45;20.40;99.90
64715;DHT22;51144;53.002;6.506;2022-09-09T10:57:36;20.80;99.90
64715;DHT22;51144;53.002;6.506;2022-09-09T11:00:17;21.10;99.90
64715;DHT22;51144;53.002;6.506;2022-09-09T11:02:43;21.30;99.90
64715;DHT22;51144;53.002;6.506;2022-09-09T11:05:21;21.30;99.90
64715;DHT22;51144;53.002;6.506;2022-09-09T11:13:04;21.20;99.90
64715;DHT22;51144;53.002;6.506;2022-09-09T11:15:41;20.90;99.90
64715;DHT22;51144;53.002;6.506;2022-09-09T11:18:13;20.80;99.90
64715;DHT22;51144;53.002;6.506;2022-09-09T11:20:41;20.70;99.90
64715;DHT22;51144;53.002;6.506;2022-09-09T11:23:56;20.50;99.90
64715;DHT22;51144;53.002;6.506;2022-09-09T11:26:04;20.60;99.90
64715;DHT22;51144;53.002;6.506;2022-09-09T11:31:43;21.10;99.90
64715;DHT22;51144;53.002;6.506;2022-09-09T11:42:17;20.90;99.90
64715;DHT22;51144;53.002;6.506;2022-09-09T11:44:44;20.90;99.90
64715;DHT22;51144;53.002;6.506;2022-09-09T11:49:49;20.70;99.90
64715;DHT22;51144;53.002;6.506;2022-09-09T11:52:23;20.50;99.90
64715;DHT22;51144;53.002;6.506;2022-09-09T11:54:51;20.50;99.90
64715;DHT22;51144;53.002;6.506;2022-09-09T11:57:33;20.40;99.90
64715;DHT22;51144;53.002;6.506;2022-09-09T12:00:00;20.40;99.90
64715;DHT22;51144;53.002;6.506;2022-09-09T12:02:28;20.30;99.90
64715;DHT22;51144;53.002;6.506;2022-09-09T12:05:11;20.30;99.90
64715;DHT22;51144;53.002;6.506;2022-09-09T12:07:45;20.20;99.90
64715;DHT22;51144;53.002;6.506;2022-09-09T12:12:46;20.40;99.90
64715;DHT22;51144;53.002;6.506;2022-09-09T12:17:52;20.70;99.90
64715;DHT22;51144;53.002;6.506;2022-09-09T12:20:37;20.90;99.90
64715;DHT22;51144;53.002;6.506;2022-09-09T12:23:19;21.00;99.90
64715;DHT22;51144;53.002;6.506;2022-09-09T12:33:44;21.00;99.90
64715;DHT22;51144;53.002;6.506;2022-09-09T12:36:29;21.10;99.90
64715;DHT22;51144;53.002;6.506;2022-09-09T12:38:58;21.60;99.90
64715;DHT22;51144;53.002;6.506;2022-09-09T12:41:27;22.20;99.90
64715;DHT22;51144;53.002;6.506;2022-09-09T12:44:09;22.10;99.90
64715;DHT22;51144;53.002;6.506;2022-09-09T12:46:40;22.00;99.90
64715;DHT22;51144;53.002;6.506;2022-09-09T12:51:52;21.70;99.90
64715;DHT22;51144;53.002;6.506;2022-09-09T12:54:19;21.60;99.90
64715;DHT22;51144;53.002;6.506;2022-09-09T12:56:46;21.60;99.90
64715;DHT22;51144;53.002;6.506;2022-09-09T12:59:27;21.80;99.90
64715;DHT22;51144;53.002;6.506;2022-09-09T13:02:00;22.10;99.90
64715;DHT22;51144;53.002;6.506;2022-09-09T13:04:27;22.20;99.90
64715;DHT22;51144;53.002;6.506;2022-09-09T13:06:52;22.00;99.90
64715;DHT22;51144;53.002;6.506;2022-09-09T13:09:19;21.90;99.90
64715;DHT22;51144;53.002;6.506;2022-09-09T13:11:52;21.60;99.90
64715;DHT22;51144;53.002;6.506;2022-09-09T13:14:49;21.40;99.90
64715;DHT22;51144;53.002;6.506;2022-09-09T13:17:24;21.20;99.90
64715;DHT22;51144;53.002;6.506;2022-09-09T13:19:52;21.30;99.90
64715;DHT22;51144;53.002;6.506;2022-09-09T13:22:35;21.20;99.90
64715;DHT22;51144;53.002;6.506;2022-09-09T13:27:39;21.10;99.90
64715;DHT22;51144;53.002;6.506;2022-09-09T13:30:23;21.20;99.90
64715;DHT22;51144;53.002;6.506;2022-09-09T13:35:57;21.90;99.90
64715;DHT22;51144;53.002;6.506;2022-09-09T13:38:24;22.00;99.90
64715;DHT22;51144;53.002;6.506;2022-09-09T13:41:01;21.90;99.90
64715;DHT22;51144;53.002;6.506;2022-09-09T13:43:28;21.70;99.90
64715;DHT22;51144;53.002;6.506;2022-09-09T13:46:04;21.40;99.90
64715;DHT22;51144;53.002;6.506;2022-09-09T13:48:30;21.60;99.90
64715;DHT22;51144;53.002;6.506;2022-09-09T13:50:58;21.80;99.90
64715;DHT22;51144;53.002;6.506;2022-09-09T13:53:24;22.40;99.90
64715;DHT22;51144;53.002;6.506;2022-09-09T13:55:50;23.20;99.90
64715;DHT22;51144;53.002;6.506;2022-09-09T13:58:17;23.70;99.90
64715;DHT22;51144;53.002;6.506;2022-09-09T14:00:47;23.70;99.90
64715;DHT22;51144;53.002;6.506;2022-09-09T14:03:12;23.20;99.90
64715;DHT22;51144;53.002;6.506;2022-09-09T14:05:39;22.50;99.90
64715;DHT22;51144;53.002;6.506;2022-09-09T14:08:06;21.70;99.90
64715;DHT22;51144;53.002;6.506;2022-09-09T14:10:32;21.20;99.90
64715;DHT22;51144;53.002;6.506;2022-09-09T14:12:58;20.70;99.90
64715;DHT22;51144;53.002;6.506;2022-09-09T14:15:23;20.30;99.90
64715;DHT22;51144;53.002;6.506;2022-09-09T14:17:49;20.10;99.90
64715;DHT22;51144;53.002;6.506;2022-09-09T14:20:14;20.00;99.90
64715;DHT22;51144;53.002;6.506;2022-09-09T14:22:41;19.90;99.90
64715;DHT22;51144;53.002;6.506;2022-09-09T14:25:07;19.90;99.90
64715;DHT22;51144;53.002;6.506;2022-09-09T14:27:33;19.90;99.90
64715;DHT22;51144;53.002;6.506;2022-09-09T14:29:59;20.00;99.90
64715;DHT22;51144;53.002;6.506;2022-09-09T14:32:26;20.00;99.90
64715;DHT22;51144;53.002;6.506;2022-09-09T14:34:52;20.10;99.90
64715;DHT22;51144;53.002;6.506;2022-09-09T14:37:18;20.20;99.90
64715;DHT22;51144;53.002;6.506;2022-09-09T14:39:44;20.30;99.90
64715;DHT22;51144;53.002;6.506;2022-09-09T14:42:13;20.40;99.90
64715;DHT22;51144;53.002;6.506;2022-09-09T14:44:39;20.50;99.90
64715;DHT22;51144;53.002;6.506;2022-09-09T14:47:06;20.60;99.90
64715;DHT22;51144;53.002;6.506;2022-09-09T14:49:36;20.70;99.90
64715;DHT22;51144;53.002;6.506;2022-09-09T14:52:03;20.80;99.90
64715;DHT22;51144;53.002;6.506;2022-09-09T14:54:30;20.90;99.90
64715;DHT22;51144;53.002;6.506;2022-09-09T14:56:56;21.00;99.90
64715;DHT22;51144;53.002;6.506;2022-09-09T14:59:23;21.00;99.90
64715;DHT22;51144;53.002;6.506;2022-09-09T15:01:48;21.10;99.90
64715;DHT22;51144;53.002;6.506;2022-09-09T15:04:14;21.20;99.90
64715;DHT22;51144;53.002;6.506;2022-09-09T15:06:40;21.20;99.90
64715;DHT22;51144;53.002;6.506;2022-09-09T15:09:08;21.20;99.90
64715;DHT22;51144;53.002;6.506;2022-09-09T15:11:36;21.20;99.90
64715;DHT22;51144;53.002;6.506;2022-09-09T15:14:06;21.00;99.90
64715;DHT22;51144;53.002;6.506;2022-09-09T15:16:33;20.90;99.90
64715;DHT22;51144;53.002;6.506;2022-09-09T15:18:59;20.80;99.90
64715;DHT22;51144;53.002;6.506;2022-09-09T15:21:27;20.60;99.90
64715;DHT22;51144;53.002;6.506;2022-09-09T15:23:55;20.50;99.90
64715;DHT22;51144;53.002;6.506;2022-09-09T15:26:22;20.40;99.90
64715;DHT22;51144;53.002;6.506;2022-09-09T15:28:49;20.30;99.90
64715;DHT22;51144;53.002;6.506;2022-09-09T15:31:24;20.20;99.90
64715;DHT22;51144;53.002;6.506;2022-09-09T15:33:50;20.10;99.90
64715;DHT22;51144;53.002;6.506;2022-09-09T15:36:24;20.00;99.90
64715;DHT22;51144;53.002;6.506;2022-09-09T15:38:51;20.00;99.90
64715;DHT22;51144;53.002;6.506;2022-09-09T15:41:19;19.90;99.90
64715;DHT22;51144;53.002;6.506;2022-09-09T15:43:46;19.90;99.90
64715;DHT22;51144;53.002;6.506;2022-09-09T15:46:37;20.00;99.90
64715;DHT22;51144;53.002;6.506;2022-09-09T15:49:38;19.90;99.90
64715;DHT22;51144;53.002;6.506;2022-09-09T15:51:59;19.90;99.90
64715;DHT22;51144;53.002;6.506;2022-09-09T15:54:27;19.80;99.90
64715;DHT22;51144;53.002;6.506;2022-09-09T15:56:57;19.80;99.90
64715;DHT22;51144;53.002;6.506;2022-09-09T15:59:24;19.70;99.90
64715;DHT22;51144;53.002;6.506;2022-09-09T16:01:50;19.70;99.90
64715;DHT22;51144;53.002;6.506;2022-09-09T16:04:21;19.70;99.90
64715;DHT22;51144;53.002;6.506;2022-09-09T16:06:54;19.60;99.90
64715;DHT22;51144;53.002;6.506;2022-09-09T16:09:21;19.60;99.90
64715;DHT22;51144;53.002;6.506;2022-09-09T16:11:47;19.60;99.90
64715;DHT22;51144;53.002;6.506;2022-09-09T16:14:14;19.50;99.90
64715;DHT22;51144;53.002;6.506;2022-09-09T16:16:41;19.40;99.90
64715;DHT22;51144;53.002;6.506;2022-09-09T16:19:10;19.40;99.90
64715;DHT22;51144;53.002;6.506;2022-09-09T16:21:42;19.20;99.90
64715;DHT22;51144;53.002;6.506;2022-09-09T16:24:10;19.10;99.90
64715;DHT22;51144;53.002;6.506;2022-09-09T16:26:38;18.80;99.90
64715;DHT22;51144;53.002;6.506;2022-09-09T16:29:05;18.80;99.90
64715;DHT22;51144;53.002;6.506;2022-09-09T16:31:31;18.60;99.90
64715;DHT22;51144;53.002;6.506;2022-09-09T16:34:00;18.60;99.90
64715;DHT22;51144;53.002;6.506;2022-09-09T16:36:27;18.60;99.90
64715;DHT22;51144;53.002;6.506;2022-09-09T16:38:55;18.50;99.90
64715;DHT22;51144;53.002;6.506;2022-09-09T16:41:23;18.50;99.90
64715;DHT22;51144;53.002;6.506;2022-09-09T16:43:57;18.50;99.90
64715;DHT22;51144;53.002;6.506;2022-09-09T16:46:24;18.50;99.90
64715;DHT22;51144;53.002;6.506;2022-09-09T16:48:50;18.60;99.90
64715;DHT22;51144;53.002;6.506;2022-09-09T16:51:23;18.60;99.90
64715;DHT22;51144;53.002;6.506;2022-09-09T16:53:50;18.60;99.90
64715;DHT22;51144;53.002;6.506;2022-09-09T16:56:19;18.60;99.90
64715;DHT22;51144;53.002;6.506;2022-09-09T16:58:57;18.60;99.90
64715;DHT22;51144;53.002;6.506;2022-09-09T17:01:28;18.60;99.90
64715;DHT22;51144;53.002;6.506;2022-09-09T17:03:59;18.60;99.90
64715;DHT22;51144;53.002;6.506;2022-09-09T17:06:27;18.60;99.90
64715;DHT22;51144;53.002;6.506;2022-09-09T17:09:01;18.60;99.90
64715;DHT22;51144;53.002;6.506;2022-09-09T17:11:27;18.60;99.90
64715;DHT22;51144;53.002;6.506;2022-09-09T17:13:54;18.60;99.90
64715;DHT22;51144;53.002;6.506;2022-09-09T17:16:22;18.60;99.90
64715;DHT22;51144;53.002;6.506;2022-09-09T17:18:49;18.60;99.90
64715;DHT22;51144;53.002;6.506;2022-09-09T17:21:18;18.50;99.90
64715;DHT22;51144;53.002;6.506;2022-09-09T17:23:44;18.50;99.90
64715;DHT22;51144;53.002;6.506;2022-09-09T17:26:13;18.50;99.90
64715;DHT22;51144;53.002;6.506;2022-09-09T17:28:40;18.40;99.90
64715;DHT22;51144;53.002;6.506;2022-09-09T17:31:07;18.40;99.90
64715;DHT22;51144;53.002;6.506;2022-09-09T17:33:34;18.30;99.90
64715;DHT22;51144;53.002;6.506;2022-09-09T17:36:24;18.30;99.90
64715;DHT22;51144;53.002;6.506;2022-09-09T17:38:51;18.30;99.90
64715;DHT22;51144;53.002;6.506;2022-09-09T17:41:22;18.30;99.90
64715;DHT22;51144;53.002;6.506;2022-09-09T17:43:48;18.20;99.90
64715;DHT22;51144;53.002;6.506;2022-09-09T17:46:38;18.20;99.90
64715;DHT22;51144;53.002;6.506;2022-09-09T17:49:04;18.20;99.90
64715;DHT22;51144;53.002;6.506;2022-09-09T17:51:33;18.20;99.90
64715;DHT22;51144;53.002;6.506;2022-09-09T17:54:01;18.20;99.90
64715;DHT22;51144;53.002;6.506;2022-09-09T17:56:29;18.20;99.90
64715;DHT22;51144;53.002;6.506;2022-09-09T17:59:00;18.10;99.90
64715;DHT22;51144;53.002;6.506;2022-09-09T18:01:29;18.10;99.90
64715;DHT22;51144;53.002;6.506;2022-09-09T18:03:56;18.10;99.90
64715;DHT22;51144;53.002;6.506;2022-09-09T18:06:26;18.10;99.90
64715;DHT22;51144;53.002;6.506;2022-09-09T18:08:57;18.00;99.90
64715;DHT22;51144;53.002;6.506;2022-09-09T18:11:28;18.00;99.90